Time;durP1;ratioP1;P1;durP2;ratioP2;P2;SDS_P1;SDS_P2;PMS_P1;PMS_P2;Temp;Humidity;BMP_temperature;BMP_pressure;BME280_temperature;BME280_humidity;BME280_pressure;Samples;Min_cycle;Max_cycle;Signal;HPM_P1;HPM_P2
2022/04/23 00:01:10;;;;;;;7.18;4.05;;;;;;;10.83;59.61;93850.34;5114416;28;20454;-69
2022/04/23 00:03:35;;;;;;;6.20;3.50;;;;;;;10.89;57.58;93849.75;5097707;27;20023;-69
2022/04/23 00:06:01;;;;;;;8.65;3.47;;;;;;;10.92;56.97;93846.84;5114678;27;20034;-69
2022/04/23 00:08:27;;;;;;;7.80;3.53;;;;;;;10.85;56.98;93845.81;5113506;28;20031;-69
2022/04/23 00:10:53;;;;;;;7.30;3.40;;;;;;;10.96;56.63;93842.97;5126199;27;20095;-69
2022/04/23 00:13:18;;;;;;;8.55;3.33;;;;;;;11.01;57.45;93837.34;5123479;27;20106;-69
2022/04/23 00:15:44;;;;;;;6.40;3.50;;;;;;;11.05;59.80;93838.66;5111425;27;20032;-69
2022/04/23 00:18:09;;;;;;;5.78;3.15;;;;;;;11.09;56.60;93824.38;5104096;28;20409;-69
2022/04/23 00:20:35;;;;;;;6.38;3.15;;;;;;;11.10;57.07;93820.81;5129749;27;20037;-70
2022/04/23 00:23:02;;;;;;;7.20;2.80;;;;;;;11.18;54.96;93834.66;5113015;28;20130;-69
2022/04/23 00:25:28;;;;;;;4.93;2.95;;;;;;;11.26;55.10;93831.28;5098957;27;20458;-69
2022/04/23 00:27:53;;;;;;;7.95;3.35;;;;;;;11.26;57.22;93843.50;5133207;27;20031;-69
2022/04/23 00:30:19;;;;;;;5.85;3.55;;;;;;;11.26;58.01;93846.09;5133303;27;20023;-69
2022/04/23 00:32:45;;;;;;;6.28;3.47;;;;;;;11.17;58.78;93843.44;5097624;27;20035;-69
2022/04/23 00:35:17;;;;;;;7.72;3.08;;;;;;;11.07;57.93;93837.53;5133154;27;20031;-69
2022/04/23 00:37:44;;;;;;;5.30;2.97;;;;;;;11.16;56.57;93841.78;5116552;27;20035;-69
2022/04/23 00:40:16;;;;;;;4.45;2.90;;;;;;;11.16;57.81;93848.78;5112909;28;20028;-69
2022/04/23 00:42:52;;;;;;;7.25;3.30;;;;;;;11.18;55.16;93832.06;5109860;28;20416;-69
2022/04/23 00:45:22;;;;;;;8.25;2.97;;;;;;;11.24;57.64;93816.81;5113803;27;20024;-70
2022/04/23 00:47:47;;;;;;;5.75;3.30;;;;;;;11.17;55.66;93811.41;5110878;28;20134;-69
2022/04/23 00:50:13;;;;;;;9.82;3.40;;;;;;;11.25;55.59;93831.44;5095754;28;20549;-69
2022/04/23 00:52:38;;;;;;;7.28;3.15;;;;;;;11.28;56.18;93828.53;5129006;27;20031;-69
2022/04/23 00:55:05;;;;;;;10.13;3.90;;;;;;;11.37;55.96;93843.22;5115998;27;20492;-69
2022/04/23 00:57:31;;;;;;;5.78;3.15;;;;;;;11.28;57.97;93842.38;5115557;27;20023;-70
2022/04/23 00:59:56;;;;;;;6.13;2.83;;;;;;;11.38;56.34;93844.84;5098831;27;20059;-69
2022/04/23 01:02:22;;;;;;;7.63;3.40;;;;;;;11.43;57.48;93842.59;5111651;28;20337;-69
2022/04/23 01:04:48;;;;;;;6.90;2.92;;;;;;;11.37;55.75;93830.22;5111946;28;20031;-69
2022/04/23 01:07:13;;;;;;;6.05;2.80;;;;;;;11.49;54.07;93836.75;5094477;28;20046;-69
2022/04/23 01:09:39;;;;;;;9.27;2.80;;;;;;;11.68;53.63;93840.09;5112210;27;20034;-69
2022/04/23 01:12:05;;;;;;;7.97;2.92;;;;;;;11.76;53.05;93832.31;5111531;27;20027;-70
2022/04/23 01:14:31;;;;;;;10.07;3.05;;;;;;;11.81;52.75;93830.03;5132408;27;20031;-69
2022/04/23 01:16:56;;;;;;;11.18;3.35;;;;;;;11.91;52.68;93840.34;5120800;27;20035;-69
2022/04/23 01:19:22;;;;;;;8.10;3.30;;;;;;;11.78;54.31;93851.16;5114213;27;20031;-69
2022/04/23 01:21:47;;;;;;;6.05;2.67;;;;;;;11.81;53.76;93856.06;5101007;28;20031;-69
2022/04/23 01:24:14;;;;;;;4.68;2.75;;;;;;;11.82;54.00;93842.09;5111860;27;20043;-69
2022/04/23 01:26:39;;;;;;;6.60;3.22;;;;;;;11.75;54.58;93851.47;5110910;27;20118;-69
2022/04/23 01:29:04;;;;;;;5.05;2.83;;;;;;;11.66;56.73;93852.44;5131740;27;20028;-69
2022/04/23 01:31:30;;;;;;;5.90;3.17;;;;;;;11.65;54.25;93845.63;5122146;27;20036;-69
2022/04/23 01:33:55;;;;;;;6.72;3.10;;;;;;;11.59;57.17;93860.88;5130642;27;20038;-69
2022/04/23 01:36:21;;;;;;;5.78;2.90;;;;;;;11.60;54.17;93831.28;5131795;27;20023;-69
2022/04/23 01:38:46;;;;;;;8.88;3.30;;;;;;;11.62;53.20;93828.53;5114915;27;20440;-69
2022/04/23 01:41:12;;;;;;;6.10;3.05;;;;;;;11.65;52.38;93825.59;5132259;27;20062;-69
2022/04/23 01:43:37;;;;;;;5.03;2.90;;;;;;;11.71;52.07;93831.97;5133612;27;20028;-69
2022/04/23 01:46:03;;;;;;;5.72;2.67;;;;;;;11.64;51.93;93808.34;5114118;27;20032;-69
2022/04/23 01:48:28;;;;;;;8.73;2.83;;;;;;;11.78;52.05;93827.75;5118445;27;20114;-69
2022/04/23 01:50:55;;;;;;;8.20;2.85;;;;;;;11.82;51.68;93832.50;5106895;28;20031;-69
2022/04/23 01:53:22;;;;;;;6.95;3.35;;;;;;;11.86;51.14;93822.59;5112789;28;20488;-69
2022/04/23 01:55:51;;;;;;;5.60;3.50;;;;;;;11.93;51.21;93818.41;5128878;27;20054;-70
2022/04/23 01:58:16;;;;;;;6.82;3.13;;;;;;;11.82;52.00;93837.69;5114970;27;20052;-69
2022/04/23 02:00:43;;;;;;;5.40;2.92;;;;;;;11.77;52.14;93846.94;5116877;27;20485;-69
2022/04/23 02:03:09;;;;;;;8.88;3.42;;;;;;;11.67;52.03;93822.84;5127968;27;20091;-69
2022/04/23 02:05:34;;;;;;;7.78;3.45;;;;;;;11.79;51.69;93856.22;5112322;27;20031;-69
2022/04/23 02:08:00;;;;;;;10.20;3.25;;;;;;;12.05;50.33;93860.56;5115596;27;20035;-69
2022/04/23 02:10:25;;;;;;;7.40;2.92;;;;;;;12.21;50.66;93862.38;5101754;28;20031;-69
2022/04/23 02:12:51;;;;;;;10.98;3.35;;;;;;;12.26;50.25;93857.53;5110834;28;20034;-69
2022/04/23 02:15:17;;;;;;;10.32;3.30;;;;;;;12.31;50.22;93873.44;5114157;27;20038;-69
2022/04/23 02:17:43;;;;;;;8.05;3.20;;;;;;;12.22;50.25;93871.81;5116878;27;20036;-69
2022/04/23 02:20:10;;;;;;;9.50;3.08;;;;;;;12.24;49.92;93882.91;5115984;27;20027;-69
2022/04/23 02:22:36;;;;;;;7.13;3.10;;;;;;;12.15;51.11;93878.66;5093928;27;20039;-69
2022/04/23 02:25:01;;;;;;;9.73;3.05;;;;;;;12.11;51.25;93882.53;5110681;28;20069;-69
2022/04/23 02:27:30;;;;;;;7.78;3.17;;;;;;;12.01;50.99;93878.28;5110920;28;20034;-69
2022/04/23 02:29:55;;;;;;;6.18;2.80;;;;;;;11.94;51.31;93871.25;5110992;28;20027;-69
2022/04/23 02:32:20;;;;;;;5.80;2.70;;;;;;;11.84;51.35;93872.19;5122261;27;20027;-69
2022/04/23 02:34:46;;;;;;;8.13;3.40;;;;;;;11.90;51.63;93886.38;5122285;27;20125;-69
2022/04/23 02:37:11;;;;;;;11.32;3.28;;;;;;;11.89;51.93;93891.72;5131237;27;20019;-69
2022/04/23 02:39:38;;;;;;;8.15;3.55;;;;;;;11.90;53.45;93894.19;5129351;27;20031;-69
2022/04/23 02:42:05;;;;;;;7.32;3.45;;;;;;;11.89;54.16;93883.94;5129811;27;20080;-69
2022/04/23 02:44:30;;;;;;;6.78;3.17;;;;;;;11.86;53.98;93882.44;5115321;27;20027;-69
2022/04/23 02:46:56;;;;;;;6.82;3.17;;;;;;;11.82;53.46;93881.94;5121977;27;20485;-69
2022/04/23 02:49:22;;;;;;;7.90;2.83;;;;;;;11.86;51.75;93869.44;5122300;27;20032;-69
2022/04/23 02:51:47;;;;;;;6.30;3.40;;;;;;;11.87;53.33;93881.50;5115165;27;20047;-69
2022/04/23 02:54:13;;;;;;;5.70;3.17;;;;;;;11.88;53.47;93887.50;5111917;27;20035;-69
2022/04/23 02:56:38;;;;;;;7.22;3.85;;;;;;;11.83;53.92;93895.75;5126907;27;20031;-69
2022/04/23 02:59:05;;;;;;;7.82;4.07;;;;;;;11.78;52.59;93878.03;5110047;28;20036;-69
2022/04/23 03:01:31;;;;;;;7.18;4.10;;;;;;;11.74;53.85;93881.09;5117002;27;20442;-69
2022/04/23 03:03:58;;;;;;;10.15;3.85;;;;;;;11.57;55.20;93873.22;5109425;28;20080;-69
2022/04/23 03:06:28;;;;;;;11.52;4.90;;;;;;;11.56;54.15;93887.19;5097542;28;20073;-69
2022/04/23 03:08:55;;;;;;;8.60;4.03;;;;;;;11.54;56.03;93878.72;5110350;28;20037;-69
2022/04/23 03:11:21;;;;;;;6.25;3.38;;;;;;;11.40;58.50;93863.72;5113248;27;20031;-69
2022/04/23 03:13:46;;;;;;;10.63;3.42;;;;;;;11.33;59.05;93870.47;5130241;27;20484;-69
2022/04/23 03:16:12;;;;;;;6.47;3.80;;;;;;;11.31;57.40;93872.41;5126456;27;20027;-69
2022/04/23 03:18:37;;;;;;;9.85;3.42;;;;;;;11.16;58.08;93862.59;5111282;28;20032;-69
2022/04/23 03:21:03;;;;;;;6.53;3.28;;;;;;;11.09;57.28;93846.00;5112225;28;20034;-69
2022/04/23 03:23:28;;;;;;;6.30;3.40;;;;;;;11.03;57.67;93856.16;5111043;28;20051;-69
2022/04/23 03:25:54;;;;;;;10.63;3.33;;;;;;;11.03;58.13;93859.59;5124623;28;20034;-69
2022/04/23 03:28:20;;;;;;;8.05;3.65;;;;;;;10.97;58.45;93862.78;5120916;27;20031;-69
2022/04/23 03:30:46;;;;;;;9.05;3.30;;;;;;;10.98;59.07;93861.84;5115943;27;20107;-69
2022/04/23 03:33:12;;;;;;;6.25;3.20;;;;;;;10.92;56.90;93858.06;5096858;28;20032;-69
2022/04/23 03:35:37;;;;;;;7.55;3.20;;;;;;;10.81;56.71;93847.09;5128233;27;20416;-69
2022/04/23 03:38:03;;;;;;;7.45;3.30;;;;;;;10.93;56.91;93858.88;5114910;27;20028;-69
2022/04/23 03:40:28;;;;;;;5.65;3.20;;;;;;;10.89;58.68;93850.56;5114037;27;20181;-69
2022/04/23 03:42:54;;;;;;;7.28;3.00;;;;;;;10.73;58.74;93853.88;5113794;27;20100;-69
2022/04/23 03:45:19;;;;;;;7.35;3.47;;;;;;;10.76;58.42;93859.72;5100480;28;20653;-69
2022/04/23 03:47:47;;;;;;;9.65;3.58;;;;;;;10.70;60.69;93869.75;5113858;28;20035;-69
2022/04/23 03:50:13;;;;;;;10.95;4.32;;;;;;;10.54;59.46;93867.03;5125552;27;20023;-70
2022/04/23 03:52:39;;;;;;;16.40;5.65;;;;;;;10.52;59.24;93868.94;5126508;27;20040;-69
2022/04/23 03:55:05;;;;;;;18.95;8.20;;;;;;;10.45;59.33;93876.53;5113668;28;20107;-69
2022/04/23 03:57:31;;;;;;;14.57;5.80;;;;;;;10.42;59.14;93882.03;5128717;27;20027;-69
2022/04/23 03:59:56;;;;;;;12.30;5.30;;;;;;;10.41;58.67;93882.97;5114274;27;20037;-69
2022/04/23 04:02:22;;;;;;;11.93;5.93;;;;;;;10.49;59.22;93900.41;5111393;28;20028;-69
2022/04/23 04:04:48;;;;;;;11.30;5.93;;;;;;;10.48;59.68;93903.97;5113345;27;20042;-69
2022/04/23 04:07:20;;;;;;;9.32;5.00;;;;;;;10.48;61.73;93912.59;5115758;27;20042;-69
2022/04/23 04:09:45;;;;;;;11.20;5.57;;;;;;;10.44;61.34;93918.22;5115547;27;20413;-69
2022/04/23 04:12:11;;;;;;;24.63;10.02;;;;;;;10.31;60.95;93916.00;5113431;28;20036;-69
2022/04/23 04:14:37;;;;;;;28.05;11.90;;;;;;;10.31;61.18;93928.13;5113844;27;20031;-69
2022/04/23 04:17:05;;;;;;;25.60;11.52;;;;;;;10.29;61.25;93921.31;5129473;27;20028;-69
2022/04/23 04:19:32;;;;;;;10.60;5.57;;;;;;;10.27;63.13;93928.44;5087886;28;20039;-69
2022/04/23 04:21:57;;;;;;;38.85;21.48;;;;;;;10.28;61.44;93927.47;5096518;28;20490;-69
2022/04/23 04:24:23;;;;;;;36.67;17.65;;;;;;;10.29;62.51;93923.91;5099736;28;20047;-69
2022/04/23 04:26:48;;;;;;;22.88;10.20;;;;;;;10.29;62.70;93921.31;5113085;27;20561;-69
2022/04/23 04:29:14;;;;;;;12.05;6.18;;;;;;;10.33;63.63;93921.84;5100378;27;20408;-73
2022/04/23 04:31:51;;;;;;;15.60;9.77;;;;;;;10.25;64.19;93909.56;5115630;27;20046;-73
2022/04/23 04:34:30;;;;;;;18.42;9.02;;;;;;;10.34;64.64;93918.28;5113713;27;20084;-72
2022/04/23 04:37:02;;;;;;;17.73;8.38;;;;;;;10.36;64.24;93925.91;5099604;27;20461;-70
2022/04/23 04:39:27;;;;;;;9.35;5.60;;;;;;;10.41;64.34;93918.50;5134033;27;20477;-70
2022/04/23 04:41:53;;;;;;;7.25;4.65;;;;;;;10.54;63.23;93924.16;5131135;27;20019;-70
2022/04/23 04:44:18;;;;;;;10.32;4.70;;;;;;;10.42;63.63;93904.53;5133729;27;20080;-70
2022/04/23 04:46:44;;;;;;;39.95;19.77;;;;;;;10.55;64.24;93933.56;5131851;27;20035;-70
2022/04/23 04:49:09;;;;;;;58.47;26.92;;;;;;;10.62;63.14;93926.84;5121938;27;20042;-69
2022/04/23 04:51:36;;;;;;;23.75;11.82;;;;;;;10.68;63.75;93933.22;5112376;27;20028;-70
2022/04/23 04:54:04;;;;;;;8.40;4.10;;;;;;;10.71;64.91;93936.31;5085280;27;20613;-69
2022/04/23 04:56:30;;;;;;;30.85;15.68;;;;;;;10.82;64.13;93934.47;5115951;27;20383;-70
2022/04/23 04:58:55;;;;;;;33.85;18.80;;;;;;;11.15;61.73;93928.53;5128614;27;20033;-69
2022/04/23 05:01:21;;;;;;;22.50;12.15;;;;;;;11.40;61.29;93932.13;5115209;27;20027;-69
2022/04/23 05:03:46;;;;;;;15.45;7.55;;;;;;;11.45;61.59;93933.44;5114617;27;20550;-69
2022/04/23 05:06:12;;;;;;;11.52;6.65;;;;;;;11.67;61.41;93942.50;5091678;28;20561;-69
2022/04/23 05:08:50;;;;;;;11.52;6.53;;;;;;;11.62;61.23;93943.78;5131118;27;20027;-70
2022/04/23 05:11:16;;;;;;;23.65;13.35;;;;;;;11.85;60.54;93943.25;5130120;27;20035;-70
2022/04/23 05:13:42;;;;;;;27.02;13.95;;;;;;;11.96;60.03;93927.38;5115084;27;20042;-70
2022/04/23 05:16:08;;;;;;;20.25;9.82;;;;;;;12.23;60.35;93964.56;5129072;27;20039;-70
2022/04/23 05:18:34;;;;;;;19.08;10.18;;;;;;;12.36;60.33;93964.13;5114177;27;20584;-70
2022/04/23 05:21:00;;;;;;;20.10;12.75;;;;;;;12.45;59.60;93974.44;5131923;27;20034;-71
2022/04/23 05:23:25;;;;;;;18.02;10.02;;;;;;;12.52;57.98;93974.59;5130825;27;20055;-70
2022/04/23 05:25:51;;;;;;;20.10;9.57;;;;;;;12.59;56.25;93974.78;5113105;27;20038;-70
2022/04/23 05:28:16;;;;;;;17.77;9.88;;;;;;;12.70;55.02;93992.72;5129593;27;20026;-70
2022/04/23 05:30:42;;;;;;;24.88;15.07;;;;;;;12.73;54.30;94003.66;5094792;28;20416;-70
2022/04/23 05:33:08;;;;;;;29.73;15.77;;;;;;;12.77;54.53;94014.56;5123814;27;20027;-70
2022/04/23 05:35:33;;;;;;;20.88;12.52;;;;;;;12.84;55.02;94028.59;5129777;27;20464;-70
2022/04/23 05:37:59;;;;;;;17.08;9.80;;;;;;;12.89;54.38;94028.09;5126786;27;20449;-70
2022/04/23 05:40:24;;;;;;;18.83;7.60;;;;;;;12.91;53.25;94026.16;5130981;27;20034;-70
2022/04/23 05:42:50;;;;;;;10.93;5.78;;;;;;;12.97;53.16;94023.72;5128139;27;20113;-70
2022/04/23 05:45:15;;;;;;;17.65;8.88;;;;;;;12.91;53.55;94010.50;5124656;27;20034;-70
2022/04/23 05:47:41;;;;;;;11.70;7.32;;;;;;;12.97;53.52;94020.28;5131453;27;20491;-70
2022/04/23 05:50:10;;;;;;;17.27;8.88;;;;;;;12.93;53.87;94011.19;5110970;27;20129;-71
2022/04/23 05:52:37;;;;;;;18.42;13.50;;;;;;;13.00;53.40;94019.97;5118450;27;20035;-70
2022/04/23 05:55:07;;;;;;;15.85;9.85;;;;;;;13.02;53.43;94017.22;5110280;27;20086;-71
2022/04/23 05:57:32;;;;;;;16.33;8.40;;;;;;;13.05;53.47;94022.09;5130252;27;20102;-70
2022/04/23 05:59:57;;;;;;;23.70;11.95;;;;;;;13.04;53.79;94015.25;5109599;28;20023;-70
2022/04/23 06:02:23;;;;;;;68.88;37.10;;;;;;;13.09;53.50;94016.41;5109229;28;20023;-70
2022/04/23 06:04:49;;;;;;;15.70;5.03;;;;;;;13.17;53.31;94005.97;5109112;28;20031;-70
2022/04/23 06:07:15;;;;;;;16.10;10.98;;;;;;;13.26;53.96;94012.06;5092023;28;20023;-70
2022/04/23 06:09:41;;;;;;;12.23;5.32;;;;;;;13.37;52.60;94009.13;5092188;28;20051;-70
2022/04/23 06:12:07;;;;;;;14.57;7.65;;;;;;;13.54;52.91;94017.75;5110036;27;20023;-70
2022/04/23 06:14:32;;;;;;;9.07;4.70;;;;;;;13.77;49.60;94012.66;5109010;28;20039;-70
2022/04/23 06:16:58;;;;;;;14.25;4.43;;;;;;;13.85;49.66;94015.25;5110966;28;20019;-70
2022/04/23 06:19:23;;;;;;;6.90;4.57;;;;;;;14.08;50.52;94019.78;5112602;28;20032;-70
2022/04/23 06:21:49;;;;;;;8.25;4.25;;;;;;;14.34;49.98;94018.72;5121701;27;20031;-70
2022/04/23 06:24:14;;;;;;;7.50;4.10;;;;;;;14.55;48.88;94011.16;5132814;27;20501;-70
2022/04/23 06:26:40;;;;;;;8.13;3.95;;;;;;;14.71;48.49;94005.84;5132628;27;20027;-70
2022/04/23 06:29:05;;;;;;;6.93;4.38;;;;;;;14.93;46.88;94014.72;5131505;27;20035;-70
2022/04/23 06:31:31;;;;;;;10.70;4.50;;;;;;;15.03;47.39;94013.66;5128862;27;20023;-70
2022/04/23 06:33:56;;;;;;;8.40;5.13;;;;;;;15.19;47.23;94006.50;5128499;27;20480;-71
2022/04/23 06:36:21;;;;;;;9.40;4.55;;;;;;;15.32;46.68;94010.34;5119082;27;20035;-69
2022/04/23 06:38:47;;;;;;;11.80;5.20;;;;;;;15.37;46.74;94002.78;5110301;27;20477;-69
2022/04/23 06:41:12;;;;;;;11.13;5.28;;;;;;;15.52;46.06;94006.25;5109426;28;20027;-69
2022/04/23 06:43:38;;;;;;;12.55;5.00;;;;;;;15.71;46.01;94006.78;5122644;27;20030;-70
2022/04/23 06:46:03;;;;;;;11.88;5.35;;;;;;;15.90;46.00;93997.59;5130746;27;20027;-70
2022/04/23 06:48:29;;;;;;;12.18;4.38;;;;;;;16.13;44.04;94005.38;5105876;27;20039;-70
2022/04/23 06:50:54;;;;;;;9.98;5.53;;;;;;;16.25;43.87;93998.69;5127412;27;20030;-69
2022/04/23 06:53:19;;;;;;;9.35;4.85;;;;;;;16.35;45.46;93996.59;5118652;27;20166;-70
2022/04/23 06:55:45;;;;;;;8.43;4.50;;;;;;;16.47;46.09;94000.41;5120948;27;20138;-69
2022/04/23 06:58:11;;;;;;;11.80;6.28;;;;;;;16.62;45.03;94010.84;5128638;27;20035;-69
2022/04/23 07:00:40;;;;;;;6.43;4.13;;;;;;;16.64;45.66;94002.81;5129246;27;20038;-69
2022/04/23 07:03:05;;;;;;;9.65;7.22;;;;;;;16.74;45.22;94012.03;5129281;27;20477;-69
2022/04/23 07:05:31;;;;;;;11.25;5.70;;;;;;;16.74;45.06;93996.28;5093345;27;20027;-69
2022/04/23 07:07:58;;;;;;;8.90;5.07;;;;;;;16.94;44.63;94020.16;5129772;27;20035;-69
2022/04/23 07:10:24;;;;;;;12.20;7.88;;;;;;;17.10;45.02;94020.91;5120549;27;20027;-70
2022/04/23 07:12:52;;;;;;;10.05;7.13;;;;;;;17.20;43.68;94018.81;5101026;27;20035;-69
2022/04/23 07:15:18;;;;;;;7.10;4.15;;;;;;;17.13;43.38;94007.41;5113205;28;20023;-70
2022/04/23 07:17:43;;;;;;;10.68;5.70;;;;;;;17.19;44.01;94019.81;5128668;27;20032;-69
2022/04/23 07:20:09;;;;;;;11.55;5.65;;;;;;;17.09;43.78;94022.72;5114389;27;20413;-69
2022/04/23 07:22:35;;;;;;;8.02;5.32;;;;;;;16.93;44.73;94012.44;5108398;28;20088;-69
2022/04/23 07:25:01;;;;;;;12.95;4.38;;;;;;;17.02;43.03;94023.63;5108229;28;20429;-69
2022/04/23 07:27:27;;;;;;;9.77;4.68;;;;;;;16.94;44.54;94027.22;5109504;28;20043;-69
2022/04/23 07:29:53;;;;;;;19.23;5.03;;;;;;;16.98;45.24;94031.88;5110060;28;20028;-70
2022/04/23 07:32:20;;;;;;;9.82;4.43;;;;;;;17.05;43.44;94029.34;5092190;28;20031;-69
2022/04/23 07:37:30;;;;;;;10.73;7.38;;;;;;;17.42;45.11;94049.31;5107561;28;20124;-69
2022/04/23 07:40:05;;;;;;;12.98;5.45;;;;;;;17.41;44.70;94047.69;5109942;28;20027;-70
2022/04/23 07:42:31;;;;;;;11.50;4.80;;;;;;;17.51;43.97;94052.63;5092301;28;20096;-69
2022/04/23 07:44:57;;;;;;;13.02;8.23;;;;;;;17.71;43.67;94054.59;5106264;28;20027;-69
2022/04/23 07:47:22;;;;;;;15.95;8.82;;;;;;;17.76;43.36;94045.16;5102319;28;20096;-70
2022/04/23 07:49:48;;;;;;;21.67;14.50;;;;;;;17.83;43.86;94061.03;5086828;28;20101;-70
2022/04/23 07:52:13;;;;;;;13.43;9.57;;;;;;;17.80;43.87;94056.97;5102843;28;20421;-69
2022/04/23 07:54:39;;;;;;;16.02;10.95;;;;;;;17.90;43.26;94076.81;5120857;28;20165;-69
2022/04/23 07:57:07;;;;;;;15.93;11.00;;;;;;;17.88;44.53;94078.81;5111250;28;20023;-70
2022/04/23 07:59:32;;;;;;;12.57;6.63;;;;;;;17.71;45.42;94073.00;5120737;28;20038;-69
2022/04/23 08:01:58;;;;;;;13.43;6.68;;;;;;;17.58;44.92;94073.69;5109633;28;20122;-69
2022/04/23 08:04:23;;;;;;;13.95;8.00;;;;;;;17.15;46.65;94077.06;5113179;27;20035;-74
2022/04/23 08:06:49;;;;;;;9.27;6.15;;;;;;;17.07;47.41;94068.50;5111207;28;20499;-74
2022/04/23 08:09:14;;;;;;;11.25;6.70;;;;;;;16.68;47.99;94069.63;5129072;27;20473;-75
2022/04/23 08:11:40;;;;;;;12.32;6.32;;;;;;;16.69;47.99;94081.75;5119009;27;20046;-73
2022/04/23 08:14:06;;;;;;;10.25;6.18;;;;;;;16.63;48.53;94077.22;5115205;28;20039;-76
2022/04/23 08:16:31;;;;;;;12.35;5.95;;;;;;;16.69;48.39;94084.38;5090081;27;20517;-73
2022/04/23 08:18:57;;;;;;;9.65;5.00;;;;;;;16.63;48.49;94079.84;5107785;27;20027;-73
2022/04/23 08:21:22;;;;;;;15.20;6.75;;;;;;;16.64;48.61;94079.66;5131205;27;20110;-73
2022/04/23 08:23:48;;;;;;;15.13;8.35;;;;;;;16.53;48.41;94075.69;5116372;27;20043;-71
2022/04/23 08:26:13;;;;;;;13.80;7.15;;;;;;;16.53;49.53;94090.59;5099545;27;20484;-71
2022/04/23 08:31:23;;;;;;;7.72;3.70;;;;;;;16.76;49.90;94090.50;5124598;27;20046;-71
2022/04/23 08:34:00;;;;;;;6.50;4.82;;;;;;;16.77;49.89;94096.59;5121214;27;20023;-72
2022/04/23 08:36:30;;;;;;;12.60;5.25;;;;;;;16.76;49.15;94090.50;5134457;27;20115;-73
2022/04/23 08:38:59;;;;;;;10.45;5.40;;;;;;;16.74;49.55;94087.25;5134740;27;20404;-72
2022/04/23 08:41:31;;;;;;;9.15;4.38;;;;;;;16.72;49.68;94095.31;5128084;27;20061;-72
2022/04/23 08:44:07;;;;;;;9.38;3.97;;;;;;;16.73;49.93;94090.88;5104954;28;20107;-74
2022/04/23 08:46:40;;;;;;;13.63;6.07;;;;;;;16.70;50.61;94086.81;5102095;27;20136;-72
2022/04/23 08:49:13;;;;;;;8.60;4.32;;;;;;;16.73;50.60;94098.72;5124415;27;20057;-72
2022/04/23 08:51:40;;;;;;;8.43;4.65;;;;;;;16.78;50.67;94101.66;5130677;27;20027;-71
2022/04/23 08:54:07;;;;;;;9.13;5.18;;;;;;;16.78;50.49;94095.63;5132644;27;20023;-71
2022/04/23 08:56:34;;;;;;;8.27;4.88;;;;;;;16.87;50.15;94102.38;5111681;28;20122;-72
2022/04/23 08:59:00;;;;;;;8.82;4.05;;;;;;;16.87;49.89;94100.56;5114280;27;20062;-72
2022/04/23 09:01:25;;;;;;;8.90;3.40;;;;;;;16.84;49.63;94097.50;5122932;27;20107;-72
2022/04/23 09:03:51;;;;;;;19.88;5.00;;;;;;;16.73;50.21;94104.78;5125632;27;20023;-70
2022/04/23 09:06:16;;;;;;;10.00;4.55;;;;;;;16.78;49.86;94104.28;5118540;27;20039;-70
2022/04/23 09:09:07;;;;;;;6.03;3.13;;;;;;;16.78;49.99;94093.78;5111553;28;20055;-70
2022/04/23 09:11:35;;;;;;;8.73;2.97;;;;;;;16.76;50.12;94093.13;5112814;27;20089;-70
2022/04/23 09:14:03;;;;;;;6.97;2.83;;;;;;;16.87;48.88;94097.94;5117058;27;20291;-70
2022/04/23 09:24:45;;;;;;;8.55;3.40;;;;;;;16.86;48.93;94096.31;5116446;27;20070;-68
2022/04/23 09:27:11;;;;;;;8.32;2.90;;;;;;;16.85;48.80;94096.50;5124008;27;20039;-68
2022/04/23 09:29:36;;;;;;;7.10;2.58;;;;;;;16.74;48.67;94092.50;5114494;27;20031;-68
2022/04/23 09:32:09;;;;;;;6.53;2.67;;;;;;;16.75;49.28;94092.31;5131721;27;20083;-68
2022/04/23 09:34:35;;;;;;;6.75;2.92;;;;;;;16.83;48.61;94091.44;5135632;27;20038;-68
2022/04/23 09:37:00;;;;;;;8.73;3.80;;;;;;;16.81;48.87;94090.00;5131080;27;20099;-68
2022/04/23 09:39:34;;;;;;;7.63;2.72;;;;;;;16.68;48.78;94103.72;5111859;27;20026;-68
2022/04/23 09:42:17;;;;;;;6.30;2.80;;;;;;;16.56;49.23;94089.44;5109284;27;20449;-68
2022/04/23 09:44:43;;;;;;;6.43;3.03;;;;;;;16.56;49.16;94089.44;5112301;27;20027;-68
2022/04/23 09:47:08;;;;;;;4.95;2.70;;;;;;;16.70;50.13;94091.25;5113781;27;20027;-68
2022/04/23 09:49:34;;;;;;;4.82;2.50;;;;;;;16.83;48.91;94086.19;5131073;27;20031;-68
2022/04/23 09:52:07;;;;;;;7.03;2.35;;;;;;;17.03;48.80;94088.25;5114941;27;20066;-68
2022/04/23 09:54:33;;;;;;;5.95;2.20;;;;;;;17.21;48.28;94083.41;5121729;27;20062;-68
2022/04/23 09:56:59;;;;;;;6.65;2.80;;;;;;;17.37;47.34;94075.28;5118367;27;20091;-68
2022/04/23 09:59:25;;;;;;;7.13;2.85;;;;;;;17.48;47.54;94070.56;5123244;27;20027;-68
2022/04/23 10:01:54;;;;;;;6.07;2.95;;;;;;;17.58;46.27;94071.06;5112876;27;20031;-68
2022/04/23 10:04:49;;;;;;;8.93;4.97;;;;;;;17.69;47.00;94065.31;5131311;27;20035;-67
2022/04/23 10:07:17;;;;;;;7.03;3.28;;;;;;;17.82;46.84;94070.69;5125507;27;20039;-68
2022/04/23 10:09:42;;;;;;;8.77;3.47;;;;;;;17.99;46.09;94071.22;5131573;27;20032;-68
2022/04/23 10:12:09;;;;;;;7.80;3.70;;;;;;;18.19;46.08;94081.09;5111659;27;20412;-67
2022/04/23 10:14:40;;;;;;;6.35;2.60;;;;;;;18.25;45.95;94068.00;5109527;27;20114;-67
2022/04/23 10:17:08;;;;;;;11.48;4.07;;;;;;;18.33;45.35;94079.34;5112976;27;20038;-68
2022/04/23 10:19:33;;;;;;;5.07;2.85;;;;;;;18.38;44.72;94074.34;5113462;27;20042;-67
2022/04/23 10:22:09;;;;;;;5.70;2.45;;;;;;;18.30;44.61;94070.88;5131174;27;20024;-67
2022/04/23 10:24:59;;;;;;;5.07;2.47;;;;;;;18.40;44.08;94067.88;5129667;27;20079;-68
2022/04/23 10:27:25;;;;;;;13.48;3.08;;;;;;;18.29;44.06;94065.78;5110584;28;20034;-68
2022/04/23 10:29:55;;;;;;;5.80;2.42;;;;;;;18.15;43.94;94058.81;5105903;27;20039;-67
2022/04/23 10:32:21;;;;;;;7.90;3.00;;;;;;;18.13;44.33;94066.88;5083949;28;20027;-68
2022/04/23 10:34:46;;;;;;;4.70;2.50;;;;;;;18.03;44.91;94066.44;5120333;27;20031;-67
2022/04/23 10:37:22;;;;;;;7.90;2.42;;;;;;;17.90;45.42;94068.94;5132191;27;20476;-67
2022/04/23 10:39:50;;;;;;;8.00;2.97;;;;;;;17.52;45.89;94066.53;5128138;27;20118;-67
2022/04/23 10:42:17;;;;;;;8.70;2.83;;;;;;;17.39;46.01;94060.19;5118145;27;20052;-67
2022/04/23 10:44:43;;;;;;;7.28;2.90;;;;;;;17.37;46.77;94066.63;5095701;27;20054;-67
2022/04/23 10:47:13;;;;;;;5.45;2.50;;;;;;;17.37;47.05;94062.16;5112329;27;20023;-68
2022/04/23 10:49:38;;;;;;;9.65;2.88;;;;;;;17.37;46.77;94058.75;5130661;27;20027;-68
2022/04/23 10:52:04;;;;;;;7.05;3.25;;;;;;;17.54;48.00;94056.69;5111418;27;20038;-67
2022/04/23 10:54:45;;;;;;;7.57;3.30;;;;;;;17.79;47.84;94062.38;5129810;27;20400;-68
2022/04/23 10:57:13;;;;;;;10.18;3.40;;;;;;;17.94;46.13;94062.28;5126203;27;20039;-67
2022/04/23 10:59:48;;;;;;;9.02;3.13;;;;;;;18.00;44.68;94061.56;5111697;27;20135;-68
2022/04/23 11:02:23;;;;;;;7.72;3.33;;;;;;;17.93;46.08;94061.50;5100701;28;20565;-68
2022/04/23 11:13:30;;;;;;;11.43;5.10;;;;;;;18.23;44.59;94087.59;5116975;27;20091;-68
2022/04/23 11:16:08;;;;;;;9.57;4.47;;;;;;;18.24;45.13;94068.19;5132138;27;20106;-68
2022/04/23 11:18:34;;;;;;;7.55;3.15;;;;;;;18.13;44.44;94069.50;5130527;27;20039;-68
2022/04/23 11:21:07;;;;;;;11.02;4.40;;;;;;;17.98;45.22;94071.44;5113597;28;20489;-69
2022/04/23 11:23:33;;;;;;;9.43;4.10;;;;;;;17.89;45.42;94065.50;5130416;28;20420;-68
2022/04/23 11:25:58;;;;;;;9.57;4.47;;;;;;;18.00;45.73;94066.81;5096436;28;20027;-68
2022/04/23 11:28:24;;;;;;;7.95;3.70;;;;;;;18.12;45.39;94059.22;5131943;27;20031;-69
2022/04/23 11:30:51;;;;;;;8.20;3.10;;;;;;;18.27;44.76;94058.09;5130836;28;20031;-68
2022/04/23 11:33:17;;;;;;;8.88;3.60;;;;;;;18.40;43.80;94046.03;5130627;28;20519;-69
2022/04/23 11:35:42;;;;;;;9.65;4.43;;;;;;;18.49;43.78;94050.13;5131618;27;20023;-68
2022/04/23 11:38:19;;;;;;;6.72;3.05;;;;;;;18.52;42.92;94033.97;5131972;27;20406;-68
2022/04/23 11:40:44;;;;;;;7.22;3.60;;;;;;;18.53;43.44;94040.88;5130415;28;20024;-68
2022/04/23 11:43:12;;;;;;;9.20;3.35;;;;;;;18.59;43.11;94049.78;5130425;28;20027;-68
2022/04/23 11:45:45;;;;;;;8.95;3.38;;;;;;;18.57;44.37;94042.09;5131587;27;20027;-68
2022/04/23 11:48:11;;;;;;;10.77;5.50;;;;;;;18.60;44.22;94041.69;5113358;28;20118;-68
2022/04/23 11:50:36;;;;;;;9.82;3.67;;;;;;;18.57;43.45;94043.91;5131026;27;20054;-69